sensor_id;sensor_type;location;lat;lon;timestamp;pressure;altitude;pressure_sealevel;temperature;humidity
26443;BME280;5563;52.296;6.806;2023-02-13T00:00:59;103739.72;;;6.33;84.02
26443;BME280;5563;52.296;6.806;2023-02-13T00:03:35;103709.94;;;6.17;84.04
26443;BME280;5563;52.296;6.806;2023-02-13T00:06:08;103732.72;;;6.29;83.84
26443;BME280;5563;52.296;6.806;2023-02-13T00:08:35;103691.53;;;6.11;83.77
26443;BME280;5563;52.296;6.806;2023-02-13T00:11:08;103723.03;;;6.26;84.05
26443;BME280;5563;52.296;6.806;2023-02-13T00:13:35;103737.09;;;6.30;84.12
26443;BME280;5563;52.296;6.806;2023-02-13T00:16:08;103727.44;;;6.29;84.19
26443;BME280;5563;52.296;6.806;2023-02-13T00:18:42;103696.81;;;6.11;84.01
26443;BME280;5563;52.296;6.806;2023-02-13T00:21:10;103711.78;;;6.15;84.04
26443;BME280;5563;52.296;6.806;2023-02-13T00:23:49;103699.47;;;6.11;84.33
26443;BME280;5563;52.296;6.806;2023-02-13T00:26:22;103722.22;;;6.23;84.13
26443;BME280;5563;52.296;6.806;2023-02-13T00:28:56;103704.75;;;6.13;84.30
26443;BME280;5563;52.296;6.806;2023-02-13T00:31:23;103722.34;;;6.17;84.21
26443;BME280;5563;52.296;6.806;2023-02-13T00:34:11;103700.53;;;6.01;84.32
26443;BME280;5563;52.296;6.806;2023-02-13T00:36:37;103712.66;;;6.14;84.17
26443;BME280;5563;52.296;6.806;2023-02-13T00:39:15;103715.41;;;6.10;84.31
26443;BME280;5563;52.296;6.806;2023-02-13T00:41:53;103715.34;;;6.13;84.59
26443;BME280;5563;52.296;6.806;2023-02-13T00:44:36;103690.91;;;5.94;84.27
26443;BME280;5563;52.296;6.806;2023-02-13T00:47:02;103721.56;;;6.12;84.26
26443;BME280;5563;52.296;6.806;2023-02-13T00:49:46;103713.75;;;6.03;84.36
26443;BME280;5563;52.296;6.806;2023-02-13T00:55:14;103675.19;;;5.87;84.32
26443;BME280;5563;52.296;6.806;2023-02-13T00:57:50;103680.47;;;5.87;84.19
26443;BME280;5563;52.296;6.806;2023-02-13T01:00:24;103708.47;;;6.03;84.14
26443;BME280;5563;52.296;6.806;2023-02-13T01:02:56;103706.78;;;5.97;84.23
26443;BME280;5563;52.296;6.806;2023-02-13T01:05:46;103695.44;;;5.88;84.35
26443;BME280;5563;52.296;6.806;2023-02-13T01:08:19;103708.50;;;5.98;84.67
26443;BME280;5563;52.296;6.806;2023-02-13T01:10:54;103710.34;;;5.95;84.47
26443;BME280;5563;52.296;6.806;2023-02-13T01:13:21;103690.25;;;5.82;84.78
26443;BME280;5563;52.296;6.806;2023-02-13T01:15:55;103703.38;;;5.88;84.77
26443;BME280;5563;52.296;6.806;2023-02-13T01:18:21;103698.16;;;5.85;84.54
26443;BME280;5563;52.296;6.806;2023-02-13T01:21:07;103716.53;;;5.94;84.48
26443;BME280;5563;52.296;6.806;2023-02-13T01:23:47;103700.84;;;5.83;84.58
26443;BME280;5563;52.296;6.806;2023-02-13T01:26:19;103703.44;;;5.85;84.81
26443;BME280;5563;52.296;6.806;2023-02-13T01:28:53;103701.72;;;5.81;84.83
26443;BME280;5563;52.296;6.806;2023-02-13T01:31:21;103716.56;;;5.91;84.62
26443;BME280;5563;52.296;6.806;2023-02-13T01:33:56;103690.22;;;5.80;84.85
26443;BME280;5563;52.296;6.806;2023-02-13T01:36:32;103708.66;;;5.89;84.62
26443;BME280;5563;52.296;6.806;2023-02-13T01:39:05;103706.09;;;5.85;84.79
26443;BME280;5563;52.296;6.806;2023-02-13T01:41:37;103711.41;;;5.85;84.90
26443;BME280;5563;52.296;6.806;2023-02-13T01:47:19;103699.84;;;5.87;84.81
26443;BME280;5563;52.296;6.806;2023-02-13T01:50:31;103696.34;;;5.88;84.37
26443;BME280;5563;52.296;6.806;2023-02-13T01:53:25;103703.38;;;5.88;84.67
26443;BME280;5563;52.296;6.806;2023-02-13T01:56:36;103666.56;;;5.71;84.67
26443;BME280;5563;52.296;6.806;2023-02-13T01:59:16;103681.41;;;5.81;84.72
26443;BME280;5563;52.296;6.806;2023-02-13T02:01:51;103707.69;;;5.95;84.39
26443;BME280;5563;52.296;6.806;2023-02-13T02:04:22;103691.03;;;5.88;84.32
26443;BME280;5563;52.296;6.806;2023-02-13T02:07:06;103685.66;;;5.93;84.48
26443;BME280;5563;52.296;6.806;2023-02-13T02:09:36;103689.19;;;5.93;84.33
26443;BME280;5563;52.296;6.806;2023-02-13T02:12:22;103688.28;;;5.96;84.41
26443;BME280;5563;52.296;6.806;2023-02-13T02:15:04;103669.91;;;5.84;84.31
26443;BME280;5563;52.296;6.806;2023-02-13T02:17:40;103683.94;;;5.90;84.37
26443;BME280;5563;52.296;6.806;2023-02-13T02:20:52;103694.38;;;5.98;84.35
26443;BME280;5563;52.296;6.806;2023-02-13T02:30:09;103682.13;;;5.94;84.26
26443;BME280;5563;52.296;6.806;2023-02-13T02:38:10;103682.13;;;5.94;84.16
26443;BME280;5563;52.296;6.806;2023-02-13T02:41:00;103673.34;;;5.90;84.22
26443;BME280;5563;52.296;6.806;2023-02-13T02:46:28;103667.28;;;5.85;84.18
26443;BME280;5563;52.296;6.806;2023-02-13T02:49:16;103673.31;;;5.92;84.12
26443;BME280;5563;52.296;6.806;2023-02-13T02:52:19;103679.50;;;5.92;84.07
26443;BME280;5563;52.296;6.806;2023-02-13T02:54:54;103674.16;;;5.95;84.32
26443;BME280;5563;52.296;6.806;2023-02-13T02:57:45;103653.19;;;5.82;83.97
26443;BME280;5563;52.296;6.806;2023-02-13T03:00:41;103665.34;;;5.93;83.98
26443;BME280;5563;52.296;6.806;2023-02-13T03:03:40;103672.38;;;5.94;84.09
26443;BME280;5563;52.296;6.806;2023-02-13T03:07:05;103675.03;;;5.96;83.95
26443;BME280;5563;52.296;6.806;2023-02-13T03:09:47;103664.47;;;5.93;83.96
26443;BME280;5563;52.296;6.806;2023-02-13T03:13:00;103661.91;;;5.88;84.08
26443;BME280;5563;52.296;6.806;2023-02-13T03:15:50;103669.72;;;5.94;84.27
26443;BME280;5563;52.296;6.806;2023-02-13T03:18:56;103653.13;;;5.86;84.07
26443;BME280;5563;52.296;6.806;2023-02-13T03:21:49;103672.38;;;5.96;84.14
26443;BME280;5563;52.296;6.806;2023-02-13T03:27:32;103674.16;;;5.95;83.95
26443;BME280;5563;52.296;6.806;2023-02-13T03:36:50;103675.09;;;5.91;84.15
26443;BME280;5563;52.296;6.806;2023-02-13T03:40:18;103661.13;;;5.82;84.10
26443;BME280;5563;52.296;6.806;2023-02-13T03:43:14;103672.53;;;5.87;84.58
26443;BME280;5563;52.296;6.806;2023-02-13T03:45:49;103662.03;;;5.79;84.37
26443;BME280;5563;52.296;6.806;2023-02-13T03:48:47;103670.81;;;5.83;84.32
26443;BME280;5563;52.296;6.806;2023-02-13T03:51:44;103674.25;;;5.88;84.42
26443;BME280;5563;52.296;6.806;2023-02-13T03:54:33;103674.25;;;5.88;84.47
26443;BME280;5563;52.296;6.806;2023-02-13T03:57:31;103651.56;;;5.72;84.34
26443;BME280;5563;52.296;6.806;2023-02-13T04:00:18;103663.75;;;5.82;84.73
26443;BME280;5563;52.296;6.806;2023-02-13T04:03:13;103676.06;;;5.86;84.76
26443;BME280;5563;52.296;6.806;2023-02-13T04:06:31;103681.38;;;5.84;84.70
26443;BME280;5563;52.296;6.806;2023-02-13T04:09:06;103678.75;;;5.84;84.72
26443;BME280;5563;52.296;6.806;2023-02-13T04:14:24;103677.84;;;5.84;84.76
26443;BME280;5563;52.296;6.806;2023-02-13T04:18:02;103677.00;;;5.83;84.66
26443;BME280;5563;52.296;6.806;2023-02-13T04:20:21;103671.72;;;5.83;85.02
26443;BME280;5563;52.296;6.806;2023-02-13T04:23:04;103668.19;;;5.80;84.86
26443;BME280;5563;52.296;6.806;2023-02-13T04:25:40;103673.47;;;5.81;85.10
26443;BME280;5563;52.296;6.806;2023-02-13T04:28:07;103670.03;;;5.76;85.01
26443;BME280;5563;52.296;6.806;2023-02-13T04:30:47;103659.50;;;5.72;84.97
26443;BME280;5563;52.296;6.806;2023-02-13T04:33:15;103666.50;;;5.76;85.33
26443;BME280;5563;52.296;6.806;2023-02-13T04:35:50;103667.41;;;5.75;85.32
26443;BME280;5563;52.296;6.806;2023-02-13T04:38:24;103672.63;;;5.79;85.12
26443;BME280;5563;52.296;6.806;2023-02-13T04:40:57;103670.88;;;5.77;85.40
26443;BME280;5563;52.296;6.806;2023-02-13T04:43:31;103672.66;;;5.78;85.40
26443;BME280;5563;52.296;6.806;2023-02-13T04:46:04;103644.56;;;5.66;85.42
26443;BME280;5563;52.296;6.806;2023-02-13T04:48:37;103668.22;;;5.78;85.25
26443;BME280;5563;52.296;6.806;2023-02-13T04:51:16;103658.53;;;5.77;85.62
26443;BME280;5563;52.296;6.806;2023-02-13T04:53:43;103654.13;;;5.78;85.46
26443;BME280;5563;52.296;6.806;2023-02-13T04:56:20;103660.28;;;5.78;85.58
26443;BME280;5563;52.296;6.806;2023-02-13T04:58:47;103624.38;;;5.62;85.76
26443;BME280;5563;52.296;6.806;2023-02-13T05:01:26;103658.53;;;5.77;85.63
26443;BME280;5563;52.296;6.806;2023-02-13T05:03:53;103639.28;;;5.66;85.89
26443;BME280;5563;52.296;6.806;2023-02-13T05:06:53;103620.94;;;5.56;85.54
26443;BME280;5563;52.296;6.806;2023-02-13T05:09:20;103648.03;;;5.71;85.56
26443;BME280;5563;52.296;6.806;2023-02-13T05:11:53;103658.56;;;5.76;85.81
26443;BME280;5563;52.296;6.806;2023-02-13T05:14:20;103660.28;;;5.78;85.79
26443;BME280;5563;52.296;6.806;2023-02-13T05:16:53;103647.16;;;5.72;85.87
26443;BME280;5563;52.296;6.806;2023-02-13T05:19:20;103614.69;;;5.60;85.98
26443;BME280;5563;52.296;6.806;2023-02-13T05:21:46;103637.44;;;5.71;85.91
26443;BME280;5563;52.296;6.806;2023-02-13T05:24:38;103649.66;;;5.80;85.96
26443;BME280;5563;52.296;6.806;2023-02-13T05:27:11;103652.31;;;5.80;85.80
26443;BME280;5563;52.296;6.806;2023-02-13T05:29:45;103655.84;;;5.79;85.86
26443;BME280;5563;52.296;6.806;2023-02-13T05:32:11;103633.06;;;5.70;85.94
26443;BME280;5563;52.296;6.806;2023-02-13T05:34:57;103645.31;;;5.76;86.10
26443;BME280;5563;52.296;6.806;2023-02-13T05:37:23;103614.72;;;5.58;86.12
26443;BME280;5563;52.296;6.806;2023-02-13T05:39:57;103655.00;;;5.78;86.19
26443;BME280;5563;52.296;6.806;2023-02-13T05:42:33;103633.97;;;5.69;86.24
26443;BME280;5563;52.296;6.806;2023-02-13T05:45:08;103629.63;;;5.65;85.99
26443;BME280;5563;52.296;6.806;2023-02-13T05:47:35;103619.94;;;5.63;86.12
26443;BME280;5563;52.296;6.806;2023-02-13T05:50:11;103626.97;;;5.65;85.98
26443;BME280;5563;52.296;6.806;2023-02-13T05:52:54;103638.31;;;5.72;86.41
26443;BME280;5563;52.296;6.806;2023-02-13T05:55:33;103635.66;;;5.72;86.48
26443;BME280;5563;52.296;6.806;2023-02-13T05:58:06;103620.84;;;5.62;86.50
26443;BME280;5563;52.296;6.806;2023-02-13T06:00:42;103640.94;;;5.75;86.49
26443;BME280;5563;52.296;6.806;2023-02-13T06:03:09;103643.59;;;5.75;86.49
26443;BME280;5563;52.296;6.806;2023-02-13T06:05:42;103630.53;;;5.63;86.37
26443;BME280;5563;52.296;6.806;2023-02-13T06:08:20;103645.38;;;5.73;86.44
26443;BME280;5563;52.296;6.806;2023-02-13T06:10:47;103626.19;;;5.57;86.45
26443;BME280;5563;52.296;6.806;2023-02-13T06:13:24;103659.47;;;5.75;86.62
26443;BME280;5563;52.296;6.806;2023-02-13T06:15:54;103662.06;;;5.78;86.75
26443;BME280;5563;52.296;6.806;2023-02-13T06:18:29;103661.22;;;5.74;86.66
26443;BME280;5563;52.296;6.806;2023-02-13T06:20:59;103652.50;;;5.69;86.51
26443;BME280;5563;52.296;6.806;2023-02-13T06:23:33;103663.81;;;5.77;86.72
26443;BME280;5563;52.296;6.806;2023-02-13T06:26:04;103658.56;;;5.76;86.56
26443;BME280;5563;52.296;6.806;2023-02-13T06:28:49;103643.72;;;5.64;86.64
26443;BME280;5563;52.296;6.806;2023-02-13T06:31:16;103650.75;;;5.67;86.48
26443;BME280;5563;52.296;6.806;2023-02-13T06:33:49;103641.19;;;5.58;86.70
26443;BME280;5563;52.296;6.806;2023-02-13T06:36:18;103663.06;;;5.71;86.81
26443;BME280;5563;52.296;6.806;2023-02-13T06:38:52;103678.81;;;5.78;86.64
26443;BME280;5563;52.296;6.806;2023-02-13T06:41:18;103683.22;;;5.78;86.70
26443;BME280;5563;52.296;6.806;2023-02-13T06:43:52;103684.13;;;5.77;86.65
26443;BME280;5563;52.296;6.806;2023-02-13T06:46:19;103686.75;;;5.77;86.64
26443;BME280;5563;52.296;6.806;2023-02-13T06:48:55;103685.94;;;5.75;86.73
26443;BME280;5563;52.296;6.806;2023-02-13T06:51:21;103687.66;;;5.77;86.93
26443;BME280;5563;52.296;6.806;2023-02-13T06:54:22;103696.44;;;5.79;86.90
26443;BME280;5563;52.296;6.806;2023-02-13T06:57:06;103696.44;;;5.79;87.24
26443;BME280;5563;52.296;6.806;2023-02-13T06:59:41;103698.22;;;5.79;87.12
26443;BME280;5563;52.296;6.806;2023-02-13T07:02:15;103703.47;;;5.80;87.27
26443;BME280;5563;52.296;6.806;2023-02-13T07:04:44;103700.81;;;5.80;87.48
26443;BME280;5563;52.296;6.806;2023-02-13T07:07:17;103689.47;;;5.74;87.03
26443;BME280;5563;52.296;6.806;2023-02-13T07:09:44;103704.38;;;5.79;87.13
26443;BME280;5563;52.296;6.806;2023-02-13T07:12:17;103703.47;;;5.80;87.07
26443;BME280;5563;52.296;6.806;2023-02-13T07:14:52;103693.84;;;5.76;87.03
26443;BME280;5563;52.296;6.806;2023-02-13T07:17:31;103703.47;;;5.83;87.03
26443;BME280;5563;52.296;6.806;2023-02-13T07:20:05;103702.59;;;5.81;87.23
26443;BME280;5563;52.296;6.806;2023-02-13T07:22:38;103692.97;;;5.76;86.96
26443;BME280;5563;52.296;6.806;2023-02-13T07:25:05;103706.06;;;5.86;87.36
26443;BME280;5563;52.296;6.806;2023-02-13T07:27:39;103692.06;;;5.78;87.15
26443;BME280;5563;52.296;6.806;2023-02-13T07:30:15;103706.06;;;5.86;87.38
26443;BME280;5563;52.296;6.806;2023-02-13T07:32:44;103698.16;;;5.85;87.19
26443;BME280;5563;52.296;6.806;2023-02-13T07:35:20;103695.53;;;5.83;87.30
26443;BME280;5563;52.296;6.806;2023-02-13T07:37:47;103713.91;;;5.94;87.43
26443;BME280;5563;52.296;6.806;2023-02-13T07:40:20;103715.59;;;5.96;87.29
26443;BME280;5563;52.296;6.806;2023-02-13T07:42:50;103717.38;;;5.97;87.32
26443;BME280;5563;52.296;6.806;2023-02-13T07:45:23;103706.81;;;5.96;87.11
26443;BME280;5563;52.296;6.806;2023-02-13T07:47:50;103702.41;;;5.93;87.21
26443;BME280;5563;52.296;6.806;2023-02-13T07:50:26;103700.59;;;5.97;87.26
26443;BME280;5563;52.296;6.806;2023-02-13T07:53:05;103693.53;;;5.97;87.58
26443;BME280;5563;52.296;6.806;2023-02-13T07:55:39;103724.13;;;6.15;87.30
26443;BME280;5563;52.296;6.806;2023-02-13T07:58:18;103686.44;;;5.98;87.21
26443;BME280;5563;52.296;6.806;2023-02-13T08:00:58;103698.63;;;6.09;87.14
26443;BME280;5563;52.296;6.806;2023-02-13T08:03:36;103719.53;;;6.24;87.33
26443;BME280;5563;52.296;6.806;2023-02-13T08:06:12;103701.94;;;6.22;87.02
26443;BME280;5563;52.296;6.806;2023-02-13T08:08:47;103697.53;;;6.22;87.04
26443;BME280;5563;52.296;6.806;2023-02-13T08:11:30;103697.34;;;6.33;87.12
26443;BME280;5563;52.296;6.806;2023-02-13T08:14:24;103713.06;;;6.42;87.19
26443;BME280;5563;52.296;6.806;2023-02-13T08:16:59;103721.78;;;6.48;87.10
26443;BME280;5563;52.296;6.806;2023-02-13T08:19:27;103713.72;;;6.53;87.01
26443;BME280;5563;52.296;6.806;2023-02-13T08:21:54;103725.13;;;6.60;86.90
26443;BME280;5563;52.296;6.806;2023-02-13T08:24:27;103704.81;;;6.57;87.07
26443;BME280;5563;52.296;6.806;2023-02-13T08:27:00;103688.91;;;6.57;86.57
26443;BME280;5563;52.296;6.806;2023-02-13T08:29:27;103715.97;;;6.74;86.76
26443;BME280;5563;52.296;6.806;2023-02-13T08:31:53;103701.91;;;6.71;86.35
26443;BME280;5563;52.296;6.806;2023-02-13T08:34:27;103702.72;;;6.76;86.45
26443;BME280;5563;52.296;6.806;2023-02-13T08:36:54;103727.97;;;6.93;86.23
26443;BME280;5563;52.296;6.806;2023-02-13T08:39:29;103726.13;;;6.98;85.73
26443;BME280;5563;52.296;6.806;2023-02-13T08:41:59;103726.00;;;7.03;85.43
26443;BME280;5563;52.296;6.806;2023-02-13T08:44:35;103717.13;;;7.05;85.40
26443;BME280;5563;52.296;6.806;2023-02-13T08:50:06;103707.28;;;7.10;85.22
26443;BME280;5563;52.296;6.806;2023-02-13T08:52:51;103720.31;;;7.21;84.91
26443;BME280;5563;52.296;6.806;2023-02-13T08:55:31;103718.44;;;7.26;84.89
26443;BME280;5563;52.296;6.806;2023-02-13T08:58:04;103728.13;;;7.28;84.49
26443;BME280;5563;52.296;6.806;2023-02-13T09:00:37;103720.84;;;7.36;84.32
26443;BME280;5563;52.296;6.806;2023-02-13T09:03:13;103718.16;;;7.38;84.45
26443;BME280;5563;52.296;6.806;2023-02-13T09:05:48;103711.09;;;7.38;83.88
26443;BME280;5563;52.296;6.806;2023-02-13T09:08:15;103721.38;;;7.53;83.54
26443;BME280;5563;52.296;6.806;2023-02-13T09:10:58;103723.06;;;7.56;83.45
26443;BME280;5563;52.296;6.806;2023-02-13T09:13:27;103731.78;;;7.62;83.33
26443;BME280;5563;52.296;6.806;2023-02-13T09:16:31;103735.22;;;7.68;83.41
26443;BME280;5563;52.296;6.806;2023-02-13T09:19:07;103728.22;;;7.63;83.28
26443;BME280;5563;52.296;6.806;2023-02-13T09:21:43;103744.75;;;7.76;83.03
26443;BME280;5563;52.296;6.806;2023-02-13T09:24:22;103739.50;;;7.73;82.73
26443;BME280;5563;52.296;6.806;2023-02-13T09:27:05;103735.00;;;7.77;82.56
26443;BME280;5563;52.296;6.806;2023-02-13T09:29:43;103741.03;;;7.83;82.24
26443;BME280;5563;52.296;6.806;2023-02-13T09:32:13;103740.91;;;7.89;82.14
26443;BME280;5563;52.296;6.806;2023-02-13T09:35:03;103741.53;;;7.99;81.95
26443;BME280;5563;52.296;6.806;2023-02-13T09:37:43;103738.78;;;8.03;81.75
26443;BME280;5563;52.296;6.806;2023-02-13T09:40:33;103739.53;;;8.08;81.30
26443;BME280;5563;52.296;6.806;2023-02-13T09:43:12;103730.59;;;8.12;81.31
26443;BME280;5563;52.296;6.806;2023-02-13T09:46:06;103730.50;;;8.15;81.06
26443;BME280;5563;52.296;6.806;2023-02-13T09:48:52;103714.66;;;8.12;80.04
26443;BME280;5563;52.296;6.806;2023-02-13T09:51:32;103724.94;;;8.26;79.96
26443;BME280;5563;52.296;6.806;2023-02-13T09:54:19;103744.97;;;8.40;79.50
26443;BME280;5563;52.296;6.806;2023-02-13T10:05:49;103734.59;;;8.63;78.94
26443;BME280;5563;52.296;6.806;2023-02-13T10:08:33;103742.47;;;8.66;77.38
26443;BME280;5563;52.296;6.806;2023-02-13T10:14:49;103746.91;;;8.66;76.92
26443;BME280;5563;52.296;6.806;2023-02-13T10:17:43;103740.81;;;8.62;77.21
26443;BME280;5563;52.296;6.806;2023-02-13T10:20:41;103738.09;;;8.64;75.79
26443;BME280;5563;52.296;6.806;2023-02-13T10:26:14;103738.09;;;8.64;76.15
26443;BME280;5563;52.296;6.806;2023-02-13T10:29:00;103712.63;;;8.55;76.34
26443;BME280;5563;52.296;6.806;2023-02-13T10:31:58;103736.00;;;8.77;76.07
26443;BME280;5563;52.296;6.806;2023-02-13T10:34:45;103727.16;;;8.76;75.69
26443;BME280;5563;52.296;6.806;2023-02-13T10:37:18;103730.47;;;8.84;75.14
26443;BME280;5563;52.296;6.806;2023-02-13T10:39:55;103727.84;;;8.83;75.02
26443;BME280;5563;52.296;6.806;2023-02-13T10:42:35;103694.59;;;8.66;75.49
26443;BME280;5563;52.296;6.806;2023-02-13T10:45:32;103726.72;;;8.91;75.31
26443;BME280;5563;52.296;6.806;2023-02-13T10:51:03;103714.28;;;8.92;74.48
26443;BME280;5563;52.296;6.806;2023-02-13T10:56:45;103717.06;;;8.87;74.20
26443;BME280;5563;52.296;6.806;2023-02-13T11:02:25;103718.78;;;8.90;74.47
26443;BME280;5563;52.296;6.806;2023-02-13T11:05:23;103717.00;;;8.90;73.85
26443;BME280;5563;52.296;6.806;2023-02-13T11:08:20;103710.63;;;8.96;73.51
26443;BME280;5563;52.296;6.806;2023-02-13T11:10:54;103714.03;;;9.01;73.88
26443;BME280;5563;52.296;6.806;2023-02-13T11:13:28;103712.22;;;9.01;73.82
26443;BME280;5563;52.296;6.806;2023-02-13T11:18:34;103709.41;;;9.07;73.59
26443;BME280;5563;52.296;6.806;2023-02-13T11:21:21;103712.56;;;9.20;73.23
26443;BME280;5563;52.296;6.806;2023-02-13T11:23:51;103708.72;;;9.30;73.37
26443;BME280;5563;52.296;6.806;2023-02-13T11:29:03;103704.88;;;9.67;71.30
26443;BME280;5563;52.296;6.806;2023-02-13T11:31:41;103703.75;;;9.74;71.56
26443;BME280;5563;52.296;6.806;2023-02-13T11:37:27;103693.69;;;9.84;72.12
26443;BME280;5563;52.296;6.806;2023-02-13T11:39:57;103683.69;;;9.91;71.67
26443;BME280;5563;52.296;6.806;2023-02-13T11:42:36;103676.56;;;9.91;71.47
26443;BME280;5563;52.296;6.806;2023-02-13T11:45:07;103651.06;;;9.84;71.48
26443;BME280;5563;52.296;6.806;2023-02-13T11:47:54;103691.00;;;10.12;71.19
26443;BME280;5563;52.296;6.806;2023-02-13T11:50:32;103690.03;;;10.14;69.93
26443;BME280;5563;52.296;6.806;2023-02-13T11:53:21;103685.56;;;10.15;69.79
26443;BME280;5563;52.296;6.806;2023-02-13T11:56:21;103682.13;;;10.11;69.91
26443;BME280;5563;52.296;6.806;2023-02-13T11:59:04;103674.25;;;10.07;69.28
26443;BME280;5563;52.296;6.806;2023-02-13T12:01:38;103678.81;;;10.03;69.58
26443;BME280;5563;52.296;6.806;2023-02-13T12:04:40;103685.72;;;10.10;69.92
26443;BME280;5563;52.296;6.806;2023-02-13T12:07:21;103675.75;;;10.15;69.95
26443;BME280;5563;52.296;6.806;2023-02-13T12:10:26;103679.75;;;10.28;70.28
26443;BME280;5563;52.296;6.806;2023-02-13T12:13:16;103670.88;;;10.52;69.34
26443;BME280;5563;52.296;6.806;2023-02-13T12:16:02;103665.59;;;10.99;69.47
26443;BME280;5563;52.296;6.806;2023-02-13T12:18:42;103655.19;;;11.59;65.42
26443;BME280;5563;52.296;6.806;2023-02-13T12:25:05;103655.06;;;12.65;65.06
26443;BME280;5563;52.296;6.806;2023-02-13T12:28:04;103648.94;;;12.82;62.96
26443;BME280;5563;52.296;6.806;2023-02-13T12:46:20;103627.22;;;12.69;62.60
26443;BME280;5563;52.296;6.806;2023-02-13T13:03:10;103610.88;;;13.50;58.48
26443;BME280;5563;52.296;6.806;2023-02-13T13:15:06;103613.09;;;13.59;58.14
26443;BME280;5563;52.296;6.806;2023-02-13T13:17:58;103608.06;;;13.70;57.84
26443;BME280;5563;52.296;6.806;2023-02-13T13:26:41;103601.31;;;13.80;57.20
26443;BME280;5563;52.296;6.806;2023-02-13T13:29:19;103599.03;;;14.06;55.72
26443;BME280;5563;52.296;6.806;2023-02-13T13:32:00;103590.66;;;14.13;54.80
26443;BME280;5563;52.296;6.806;2023-02-13T13:34:40;103592.69;;;14.25;54.79
26443;BME280;5563;52.296;6.806;2023-02-13T13:37:20;103571.69;;;14.16;54.22
26443;BME280;5563;52.296;6.806;2023-02-13T13:43:03;103575.19;;;14.35;54.34
26443;BME280;5563;52.296;6.806;2023-02-13T13:46:06;103557.09;;;14.38;55.18
26443;BME280;5563;52.296;6.806;2023-02-13T13:48:52;103581.72;;;14.46;53.86
26443;BME280;5563;52.296;6.806;2023-02-13T13:51:21;103576.69;;;14.40;53.66
26443;BME280;5563;52.296;6.806;2023-02-13T13:57:06;103568.31;;;14.62;53.77
26443;BME280;5563;52.296;6.806;2023-02-13T14:08:00;103573.78;;;13.76;54.17
26443;BME280;5563;52.296;6.806;2023-02-13T14:13:09;103566.03;;;13.87;54.17
26443;BME280;5563;52.296;6.806;2023-02-13T14:15:54;103564.69;;;13.96;55.11
26443;BME280;5563;52.296;6.806;2023-02-13T14:18:28;103560.50;;;14.07;54.50
26443;BME280;5563;52.296;6.806;2023-02-13T14:21:02;103559.88;;;14.02;53.98
26443;BME280;5563;52.296;6.806;2023-02-13T14:23:45;103550.41;;;13.78;54.35
26443;BME280;5563;52.296;6.806;2023-02-13T14:26:27;103548.28;;;13.68;55.24
26443;BME280;5563;52.296;6.806;2023-02-13T14:29:21;103554.91;;;13.61;54.89
26443;BME280;5563;52.296;6.806;2023-02-13T14:31:58;103553.34;;;13.57;54.79
26443;BME280;5563;52.296;6.806;2023-02-13T14:34:37;103543.19;;;13.28;55.70
26443;BME280;5563;52.296;6.806;2023-02-13T14:42:50;103537.00;;;13.09;56.02
26443;BME280;5563;52.296;6.806;2023-02-13T14:45:31;103539.81;;;13.06;56.54
26443;BME280;5563;52.296;6.806;2023-02-13T14:48:10;103541.41;;;13.10;56.12
26443;BME280;5563;52.296;6.806;2023-02-13T14:50:48;103538.94;;;12.86;56.31
26443;BME280;5563;52.296;6.806;2023-02-13T14:53:29;103516.94;;;12.61;56.08
26443;BME280;5563;52.296;6.806;2023-02-13T14:56:28;103538.44;;;12.60;56.55
26443;BME280;5563;52.296;6.806;2023-02-13T14:59:21;103547.59;;;12.54;57.05
26443;BME280;5563;52.296;6.806;2023-02-13T15:02:03;103546.03;;;12.50;57.05
26443;BME280;5563;52.296;6.806;2023-02-13T15:04:40;103546.78;;;12.34;57.44
26443;BME280;5563;52.296;6.806;2023-02-13T15:13:24;103538.00;;;11.50;59.92
26443;BME280;5563;52.296;6.806;2023-02-13T15:18:38;103529.50;;;10.75;61.74
26443;BME280;5563;52.296;6.806;2023-02-13T15:21:26;103534.09;;;10.49;62.21
26443;BME280;5563;52.296;6.806;2023-02-13T15:24:14;103501.94;;;10.06;62.38
26443;BME280;5563;52.296;6.806;2023-02-13T15:26:42;103534.66;;;10.11;62.87
26443;BME280;5563;52.296;6.806;2023-02-13T15:29:19;103531.41;;;10.01;63.48
26443;BME280;5563;52.296;6.806;2023-02-13T15:32:17;103528.16;;;9.93;63.46
26443;BME280;5563;52.296;6.806;2023-02-13T15:34:51;103525.75;;;9.86;64.36
26443;BME280;5563;52.296;6.806;2023-02-13T15:37:22;103526.34;;;9.94;64.05
26443;BME280;5563;52.296;6.806;2023-02-13T15:40:15;103524.91;;;10.08;63.69
26443;BME280;5563;52.296;6.806;2023-02-13T15:42:45;103522.72;;;10.21;63.54
26443;BME280;5563;52.296;6.806;2023-02-13T15:45:19;103501.09;;;10.28;63.03
26443;BME280;5563;52.296;6.806;2023-02-13T15:47:48;103521.91;;;10.42;62.78
26443;BME280;5563;52.296;6.806;2023-02-13T15:50:30;103522.09;;;10.37;62.73
26443;BME280;5563;52.296;6.806;2023-02-13T15:53:00;103519.06;;;10.23;62.66
26443;BME280;5563;52.296;6.806;2023-02-13T15:55:56;103511.56;;;10.10;63.40
26443;BME280;5563;52.296;6.806;2023-02-13T15:58:28;103511.28;;;9.93;64.37
26443;BME280;5563;52.296;6.806;2023-02-13T16:01:05;103510.16;;;9.75;64.57
26443;BME280;5563;52.296;6.806;2023-02-13T16:03:40;103494.03;;;9.53;64.87
26443;BME280;5563;52.296;6.806;2023-02-13T16:06:23;103499.00;;;9.38;65.68
26443;BME280;5563;52.296;6.806;2023-02-13T16:08:57;103501.09;;;9.28;66.14
26443;BME280;5563;52.296;6.806;2023-02-13T16:11:34;103515.59;;;9.20;66.90
26443;BME280;5563;52.296;6.806;2023-02-13T16:14:19;103512.41;;;9.09;66.79
26443;BME280;5563;52.296;6.806;2023-02-13T16:17:02;103490.94;;;8.87;67.09
26443;BME280;5563;52.296;6.806;2023-02-13T16:28:17;103515.78;;;8.58;68.04
26443;BME280;5563;52.296;6.806;2023-02-13T16:31:06;103517.94;;;8.46;68.86
26443;BME280;5563;52.296;6.806;2023-02-13T16:33:41;103506.84;;;8.32;69.43
26443;BME280;5563;52.296;6.806;2023-02-13T16:38:46;103502.13;;;8.09;70.12
26443;BME280;5563;52.296;6.806;2023-02-13T16:44:00;103508.97;;;7.87;70.60
26443;BME280;5563;52.296;6.806;2023-02-13T16:46:51;103485.72;;;7.63;70.45
26443;BME280;5563;52.296;6.806;2023-02-13T16:49:42;103510.44;;;7.65;70.76
26443;BME280;5563;52.296;6.806;2023-02-13T16:52:23;103511.59;;;7.55;71.32
26443;BME280;5563;52.296;6.806;2023-02-13T16:55:00;103515.38;;;7.46;71.81
26443;BME280;5563;52.296;6.806;2023-02-13T16:57:39;103500.78;;;7.29;72.29